Terminal Aerodrome Forecast
Issued by NWS

Home | Current Version | Previous Version | Text Only | Print | Product List | Glossary On
Versions: 1 2 3 4 5 6 7 8 9 10 11 12 13 14 15 16 17 18 19 20 21 22 23 24
000
FTUS44 KCRP 152333
TAFALI
TAF
KALI 152333Z 1600/1624 08009KT P6SM VCSH SCT035 BKN070
      TEMPO 1600/1601 6SM -SHRA BKN030
     FM160300 VRB03KT P6SM SCT015 SCT150
      TEMPO 1609/1613 BKN015
     FM161500 04008KT P6SM VCSH SCT025 BKN150
     FM161900 05010KT P6SM BKN040 BKN120 PROB30 1620/1624 4SM TSRA
      BKN030CB=

USA.gov is the U.S. government's official web portal to all federal, state and local government web resources and services.